Time;durP1;ratioP1;P1;durP2;ratioP2;P2;SDS_P1;SDS_P2;PMS_P1;PMS_P2;Temp;Humidity;BMP_temperature;BMP_pressure;BME280_temperature;BME280_humidity;BME280_pressure;Samples;Min_cycle;Max_cycle;Signal;HPM_P1;HPM_P2
2023/04/27 00:00:03;;;;;;;4.50;2.70;;;;;;;1.55;81.28;95481.05;106569;1276;24328;-66
2023/04/27 00:02:56;;;;;;;8.10;2.50;;;;;;;1.59;81.87;95486.81;106572;1276;23334;-66
2023/04/27 00:05:25;;;;;;;5.60;3.00;;;;;;;1.58;81.54;95485.42;106812;1276;22523;-66
2023/04/27 00:07:53;;;;;;;8.50;3.30;;;;;;;1.55;81.54;95485.73;106728;1276;25669;-66
2023/04/27 00:10:21;;;;;;;5.60;3.00;;;;;;;1.54;81.60;95489.36;106747;1276;25390;-66
2023/04/27 00:12:49;;;;;;;5.10;2.50;;;;;;;1.55;81.70;95492.66;106783;1276;24246;-67
2023/04/27 00:15:18;;;;;;;3.90;2.40;;;;;;;1.53;81.30;95494.70;106645;1276;22523;-66
2023/04/27 00:17:47;;;;;;;9.40;2.60;;;;;;;1.51;81.34;95492.27;106574;1276;25473;-66
2023/04/27 00:20:15;;;;;;;3.60;1.90;;;;;;;1.50;81.33;95493.79;106575;1276;22622;-67
2023/04/27 00:22:44;;;;;;;3.40;2.40;;;;;;;1.46;81.07;95493.05;106685;1276;22997;-67
2023/04/27 00:25:12;;;;;;;7.60;2.50;;;;;;;1.46;81.50;95495.30;106655;1276;22511;-66
2023/04/27 00:27:41;;;;;;;4.80;2.40;;;;;;;1.44;81.35;95494.92;106553;1276;22660;-66
2023/04/27 00:30:09;;;;;;;6.60;3.60;;;;;;;1.32;81.18;95492.67;106500;1276;25198;-66
2023/04/27 00:32:38;;;;;;;6.40;3.10;;;;;;;1.31;81.58;95493.34;106739;1276;22559;-66
2023/04/27 00:35:07;;;;;;;4.70;3.40;;;;;;;1.36;81.52;95491.70;106705;1276;22818;-66
2023/04/27 00:37:35;;;;;;;5.50;3.00;;;;;;;1.35;81.24;95491.34;106582;1276;24451;-66
2023/04/27 00:40:07;;;;;;;5.40;2.70;;;;;;;1.30;81.01;95492.98;106652;1276;22559;-66
2023/04/27 00:42:36;;;;;;;6.90;3.80;;;;;;;1.24;80.78;95489.42;106617;1276;24193;-66
2023/04/27 00:45:05;;;;;;;6.10;3.30;;;;;;;1.11;80.53;95493.39;106554;1276;24295;-66
2023/04/27 00:47:33;;;;;;;9.00;3.90;;;;;;;1.05;80.87;95491.21;106603;1276;22533;-66
2023/04/27 00:50:03;;;;;;;6.50;3.30;;;;;;;1.05;81.23;95494.67;106513;1276;24264;-66
2023/04/27 00:52:31;;;;;;;4.40;3.00;;;;;;;0.99;81.02;95490.95;106621;1276;25314;-66
2023/04/27 00:55:03;;;;;;;4.90;2.70;;;;;;;0.97;81.19;95489.35;106688;1276;23141;-66
2023/04/27 00:57:32;;;;;;;6.80;3.00;;;;;;;0.90;81.77;95488.19;106563;1276;22943;-67
2023/04/27 01:00:03;;;;;;;5.50;3.20;;;;;;;0.89;81.53;95486.11;106430;1276;22633;-66
2023/04/27 01:02:32;;;;;;;6.20;3.50;;;;;;;0.91;81.51;95486.82;106554;1271;24334;-66
2023/04/27 01:05:01;;;;;;;5.30;3.30;;;;;;;0.91;81.61;95486.98;106620;1276;24235;-66
2023/04/27 01:07:30;;;;;;;5.90;4.10;;;;;;;0.92;81.58;95490.99;106581;1276;25231;-67
2023/04/27 01:09:58;;;;;;;4.70;3.20;;;;;;;0.94;81.86;95493.27;106620;1276;25350;-66
2023/04/27 01:12:26;;;;;;;5.60;3.10;;;;;;;0.94;81.98;95497.08;106544;1276;22525;-66
2023/04/27 01:14:55;;;;;;;6.90;4.00;;;;;;;0.86;81.69;95497.82;106564;1276;22524;-66
2023/04/27 01:17:23;;;;;;;6.80;3.50;;;;;;;0.89;81.89;95499.09;106572;1262;22653;-66
2023/04/27 01:19:54;;;;;;;7.40;3.50;;;;;;;0.91;81.84;95496.52;106608;1276;25639;-66
2023/04/27 01:22:22;;;;;;;4.70;2.80;;;;;;;0.96;82.10;95500.93;106606;1264;22772;-66
2023/04/27 01:24:50;;;;;;;4.50;3.40;;;;;;;1.00;82.19;95498.73;106536;1276;22786;-66
2023/04/27 01:27:18;;;;;;;4.80;3.10;;;;;;;1.02;81.92;95498.09;106487;1276;22532;-66
2023/04/27 01:29:47;;;;;;;4.30;2.70;;;;;;;1.03;81.99;95499.83;106579;1276;22512;-66
2023/04/27 01:32:16;;;;;;;3.90;2.80;;;;;;;1.11;82.22;95500.48;106636;1276;22774;-67
2023/04/27 01:34:44;;;;;;;6.10;3.00;;;;;;;1.14;82.19;95496.89;106523;1276;23890;-66
2023/04/27 01:37:12;;;;;;;4.70;2.40;;;;;;;1.20;82.39;95499.06;106605;1276;23981;-66
2023/04/27 01:39:41;;;;;;;4.50;2.30;;;;;;;1.31;82.69;95500.27;106598;1276;24261;-66
2023/04/27 01:42:10;;;;;;;3.50;2.20;;;;;;;1.39;82.40;95497.80;106530;1269;24236;-66
2023/04/27 01:44:39;;;;;;;3.50;2.70;;;;;;;1.48;82.57;95499.16;106581;1276;25301;-66
2023/04/27 01:47:09;;;;;;;6.70;2.70;;;;;;;1.52;82.04;95496.43;106582;1276;22564;-67
2023/04/27 01:49:37;;;;;;;3.80;2.50;;;;;;;1.54;82.12;95499.25;106538;1276;22534;-66
2023/04/27 01:52:06;;;;;;;8.60;4.10;;;;;;;1.53;81.83;95500.24;106560;1276;22667;-66
2023/04/27 01:54:34;;;;;;;7.70;2.50;;;;;;;1.50;82.33;95500.57;106485;1276;25413;-66
2023/04/27 01:57:02;;;;;;;9.70;2.90;;;;;;;1.64;82.90;95499.72;106651;1276;24337;-66
2023/04/27 01:59:31;;;;;;;8.20;3.50;;;;;;;1.76;82.89;95499.53;106591;1276;22531;-66
2023/04/27 02:01:59;;;;;;;7.10;2.70;;;;;;;1.87;82.66;95497.44;106565;1276;22525;-66
2023/04/27 02:04:29;;;;;;;6.40;3.10;;;;;;;1.93;82.61;95496.13;106616;1276;22537;-66
2023/04/27 02:06:58;;;;;;;5.40;2.80;;;;;;;1.99;82.35;95497.95;106499;1276;22514;-66
2023/04/27 02:09:26;;;;;;;5.80;3.10;;;;;;;2.02;82.32;95499.19;106515;1275;25400;-66
2023/04/27 02:11:54;;;;;;;3.70;2.60;;;;;;;2.03;81.82;95500.08;106573;1276;22600;-66
2023/04/27 02:14:23;;;;;;;4.50;2.70;;;;;;;1.93;81.31;95500.48;106586;1276;22563;-66
2023/04/27 02:16:51;;;;;;;6.60;3.10;;;;;;;1.84;81.88;95503.98;106516;1276;22523;-66
2023/04/27 02:19:19;;;;;;;5.70;3.50;;;;;;;1.83;82.82;95509.87;106606;1276;22520;-66
2023/04/27 02:21:47;;;;;;;6.10;2.80;;;;;;;1.83;82.44;95505.19;106613;1276;22520;-66
2023/04/27 02:24:15;;;;;;;5.90;3.10;;;;;;;1.81;82.06;95508.27;106548;1276;25380;-66
2023/04/27 02:26:45;;;;;;;5.80;3.40;;;;;;;1.78;82.27;95511.02;106628;1276;25410;-66
2023/04/27 02:29:13;;;;;;;4.70;2.80;;;;;;;1.80;82.87;95515.73;106476;1276;24271;-66
2023/04/27 02:31:43;;;;;;;6.20;3.00;;;;;;;1.82;82.94;95517.31;106642;1276;22530;-66
2023/04/27 02:34:13;;;;;;;5.10;3.10;;;;;;;1.85;83.46;95515.79;106585;1276;25368;-66
2023/04/27 02:36:41;;;;;;;6.20;2.60;;;;;;;1.84;83.06;95518.39;106550;1276;22523;-67
2023/04/27 02:39:09;;;;;;;5.10;2.80;;;;;;;1.80;82.75;95520.39;106526;1276;24249;-66
2023/04/27 02:41:38;;;;;;;5.40;3.00;;;;;;;1.77;82.81;95521.06;106545;1276;22530;-66
2023/04/27 02:44:06;;;;;;;7.10;3.50;;;;;;;1.76;83.16;95524.85;106528;1276;22534;-66
2023/04/27 02:46:34;;;;;;;7.60;3.30;;;;;;;1.74;83.55;95526.06;106540;1276;25340;-66
2023/04/27 02:49:02;;;;;;;8.80;4.00;;;;;;;1.75;83.58;95526.59;106542;1276;25220;-67
2023/04/27 02:51:30;;;;;;;4.80;3.70;;;;;;;1.78;83.79;95524.89;106368;1276;22527;-66
2023/04/27 02:53:58;;;;;;;6.40;3.60;;;;;;;1.80;83.47;95522.48;106550;1276;22580;-66
2023/04/27 02:56:27;;;;;;;7.70;4.80;;;;;;;1.84;83.39;95526.35;106518;1276;25310;-66
2023/04/27 02:58:55;;;;;;;10.80;4.90;;;;;;;1.81;83.33;95524.94;106534;1276;22523;-66
2023/04/27 03:01:24;;;;;;;10.20;4.10;;;;;;;1.82;83.50;95528.77;106608;1276;25396;-66
2023/04/27 03:03:52;;;;;;;7.10;4.60;;;;;;;1.87;83.62;95532.46;106617;1276;24132;-66
2023/04/27 03:06:21;;;;;;;7.20;3.90;;;;;;;1.93;83.44;95535.52;106630;1276;22523;-66
2023/04/27 03:08:49;;;;;;;5.10;3.30;;;;;;;1.96;83.47;95538.31;106532;1267;22885;-66
2023/04/27 03:11:17;;;;;;;6.30;3.10;;;;;;;2.06;83.72;95538.11;106648;1276;22531;-66
2023/04/27 03:13:46;;;;;;;8.90;3.90;;;;;;;2.09;83.84;95542.85;106358;1276;22610;-66
2023/04/27 03:16:14;;;;;;;11.10;4.10;;;;;;;2.08;83.79;95540.23;106570;1272;22640;-66
2023/04/27 03:18:42;;;;;;;7.80;3.50;;;;;;;2.08;83.92;95546.46;106535;1267;22651;-66
2023/04/27 03:21:12;;;;;;;7.50;3.70;;;;;;;2.17;84.07;95541.21;106602;1276;22635;-66
2023/04/27 03:23:40;;;;;;;7.40;3.70;;;;;;;2.26;83.81;95547.22;106567;1276;22788;-66
2023/04/27 03:26:10;;;;;;;7.40;3.20;;;;;;;2.24;83.13;95552.05;106544;1276;25317;-67
2023/04/27 03:28:39;;;;;;;7.60;3.40;;;;;;;2.21;83.08;95557.39;106595;1276;22523;-66
2023/04/27 03:31:09;;;;;;;5.70;2.80;;;;;;;2.27;83.68;95556.77;106614;1276;23654;-66
2023/04/27 03:33:38;;;;;;;9.80;4.50;;;;;;;2.34;83.39;95563.99;106566;1276;22519;-66
2023/04/27 03:36:09;;;;;;;9.80;4.70;;;;;;;2.36;83.12;95567.64;106538;1276;22744;-66
2023/04/27 03:38:41;;;;;;;8.50;4.60;;;;;;;2.37;83.15;95570.27;106576;1276;24226;-66
2023/04/27 03:41:10;;;;;;;7.90;4.00;;;;;;;2.31;82.91;95571.23;106555;1276;25697;-66
2023/04/27 03:43:38;;;;;;;9.30;4.90;;;;;;;2.28;83.56;95575.19;106573;1276;24243;-66
2023/04/27 03:46:07;;;;;;;7.90;4.50;;;;;;;2.27;83.28;95577.25;106365;1267;24245;-67
2023/04/27 03:48:35;;;;;;;6.90;4.20;;;;;;;2.25;82.99;95582.61;106567;1276;22653;-68
2023/04/27 03:51:03;;;;;;;5.40;3.50;;;;;;;2.25;83.09;95583.13;106565;1276;22535;-66
2023/04/27 03:53:32;;;;;;;6.20;3.50;;;;;;;2.26;82.98;95581.92;106589;1276;23444;-66
2023/04/27 03:56:02;;;;;;;9.10;3.80;;;;;;;2.24;83.18;95585.53;106602;1276;22714;-66
2023/04/27 03:58:30;;;;;;;11.30;6.00;;;;;;;2.22;83.10;95586.04;106603;1276;25403;-67
2023/04/27 04:01:15;;;;;;;9.40;5.50;;;;;;;2.14;83.03;95586.10;106645;1276;22514;-66
2023/04/27 04:03:44;;;;;;;8.70;5.30;;;;;;;2.10;83.75;95590.22;106653;1276;22515;-66
2023/04/27 04:06:13;;;;;;;6.80;5.20;;;;;;;2.11;84.14;95592.66;106710;1276;22526;-66
2023/04/27 04:08:41;;;;;;;8.20;5.70;;;;;;;2.12;84.15;95593.55;106512;1276;24049;-66
2023/04/27 04:11:10;;;;;;;10.20;5.70;;;;;;;2.16;84.08;95599.32;106600;1276;24236;-66
2023/04/27 04:13:38;;;;;;;11.40;6.50;;;;;;;2.22;84.18;95601.84;106557;1276;22533;-66
2023/04/27 04:16:08;;;;;;;8.00;5.80;;;;;;;2.26;84.06;95603.98;106450;1276;25306;-66
2023/04/27 04:18:36;;;;;;;15.70;7.90;;;;;;;2.30;83.83;95600.91;106579;1276;25300;-65
2023/04/27 04:21:05;;;;;;;33.10;16.50;;;;;;;2.31;83.66;95604.21;106607;1276;22529;-65
2023/04/27 04:23:33;;;;;;;20.70;13.30;;;;;;;2.34;83.54;95603.39;106654;1276;24337;-65
2023/04/27 04:26:03;;;;;;;11.80;7.50;;;;;;;2.38;83.69;95605.69;106598;1276;22523;-65
2023/04/27 04:28:33;;;;;;;10.90;6.40;;;;;;;2.40;83.49;95610.23;106506;1276;25286;-65
2023/04/27 04:31:04;;;;;;;9.10;5.50;;;;;;;2.45;83.40;95612.20;106573;1276;22523;-65
2023/04/27 04:33:33;;;;;;;13.60;7.30;;;;;;;2.52;83.44;95611.60;106622;1276;22577;-66
2023/04/27 04:36:04;;;;;;;12.10;7.40;;;;;;;2.56;82.79;95612.00;106553;1276;25476;-65
2023/04/27 04:38:33;;;;;;;16.60;9.00;;;;;;;2.63;83.00;95613.99;106584;1276;22524;-64
2023/04/27 04:41:01;;;;;;;14.30;9.20;;;;;;;2.73;83.25;95616.72;106520;1276;23885;-66
